メインページ
METAR-TAF:

METAR-TAF

空港 :

ダニエル・K・イノウエ国際空港

ホノルル, ハワイ州, アメリカ合衆国

緯度: 21-19-39N, 経度: 157-56-35W, 海抜: 3m

現時点の気象観測

当レポートは16分前の06:53(UTC)に作成
北東の風 7kt
気温 24°C
湿度 65%
気圧 1020 hPa
視程: 16.1km
高度2600ftの雲はほとんどない
高度4000ftの雲は散在している

METAR: PHNL 240653Z 05007KT 10SM FEW026 SCT040 24/17 A3011 RMK AO2 SLP196 T02390167

時間: 21:09 (07:09 UTC)

予報

当レポートは1時間35分前の05:34(UTC)に作成
予報は24日の 06時(UTC)から 25日の 12時(UTC)まで有効
北東の風 10kt
視程: 10km
高度2500ftの雲はほとんどない
高度5000ftの雲は散在している
24日の 2100時(UTC)から
東/北東の風 12kt、最大20ktの突風を伴う
視程: 10km
高度3000ftの雲はほとんどない
高度5000ftの雲は散在している
25日の 0500時(UTC)から
東/北東の風 8kt
視程: 10km
高度2500ftの雲はほとんどない
高度5000ftの雲は散在している

TAF: PHNL 240534Z 2406/2512 05010KT P6SM FEW025 SCT050 FM242100 07012G20KT P6SM FEW030 SCT050 FM250500 06008KT P6SM FEW025 SCT050

4,000以上の空港の気象観測と天気予報(METAR報とTAF報)

利用可能な観測所は地図上に黄色い丸と赤い丸で示す。

丸の上にカーソルを重ねると観測所名を参照できる。

次にクリックすると気象観測と天気予報を参照できる。

マップの切り替え:黒色「×」印の緑ボタンをクリックして拡大、「-」印の緑ボタンをクリックして縮小、緑色の三角印をクリックして隣りの地図に切り替え


METAR-TAF: